createdAt,value
2017-10-07T00:00:38.868Z,99.99
2017-10-07T00:01:38.863Z,99.99
2017-10-07T00:02:38.860Z,99.99
2017-10-07T00:03:38.854Z,99.99
2017-10-07T00:04:38.849Z,99.99
2017-10-07T00:05:38.846Z,99.99
2017-10-07T00:06:38.846Z,99.99
2017-10-07T00:07:38.839Z,99.99
2017-10-07T00:08:38.835Z,99.99
2017-10-07T00:09:38.831Z,99.99
2017-10-07T00:10:38.822Z,99.99
2017-10-07T00:11:38.819Z,99.99
2017-10-07T00:12:38.812Z,99.99
2017-10-07T00:13:38.809Z,99.99
2017-10-07T00:14:38.808Z,99.99
2017-10-07T00:15:38.804Z,99.99
2017-10-07T00:16:38.797Z,99.99
2017-10-07T00:17:38.794Z,99.99
2017-10-07T00:18:38.790Z,99.99
2017-10-07T00:19:38.785Z,99.99
2017-10-07T00:20:38.781Z,99.99
2017-10-07T00:21:38.776Z,99.99
2017-10-07T00:22:38.767Z,99.99
2017-10-07T00:23:38.761Z,99.99
2017-10-07T00:24:38.758Z,99.99
2017-10-07T00:25:38.753Z,99.99
2017-10-07T00:26:38.749Z,99.99
2017-10-07T00:27:38.744Z,99.99
2017-10-07T00:28:38.738Z,99.99
2017-10-07T00:29:38.734Z,99.99
2017-10-07T00:30:38.734Z,99.99
2017-10-07T00:31:38.729Z,99.99
2017-10-07T00:32:38.724Z,99.99
2017-10-07T00:33:38.723Z,99.99
2017-10-07T00:34:38.716Z,99.99
2017-10-07T00:35:38.711Z,99.99
2017-10-07T00:36:38.707Z,99.99
2017-10-07T00:37:38.701Z,99.99
2017-10-07T00:38:38.693Z,99.99
2017-10-07T00:39:38.687Z,99.99
2017-10-07T00:40:38.683Z,99.99
2017-10-07T00:41:38.679Z,99.99
2017-10-07T00:42:38.674Z,99.99
2017-10-07T00:43:38.669Z,99.99
2017-10-07T00:44:38.664Z,99.99
2017-10-07T00:45:38.660Z,99.99
2017-10-07T00:46:38.660Z,99.99
2017-10-07T00:47:38.655Z,99.99
2017-10-07T00:48:38.649Z,99.99
2017-10-07T00:49:38.646Z,99.99
2017-10-07T00:50:38.643Z,99.99
2017-10-07T00:51:38.637Z,99.99
2017-10-07T00:52:38.632Z,99.99
2017-10-07T00:53:38.627Z,99.99
2017-10-07T00:54:38.619Z,99.99
2017-10-07T00:55:38.614Z,99.99
2017-10-07T00:56:38.609Z,99.99
2017-10-07T00:57:38.604Z,99.99
2017-10-07T00:58:38.600Z,99.99
2017-10-07T00:59:38.596Z,99.99
2017-10-07T01:00:38.591Z,99.99
2017-10-07T01:01:38.590Z,99.99
2017-10-07T01:02:38.586Z,99.99
2017-10-07T01:03:38.581Z,99.99
2017-10-07T01:04:38.577Z,99.99
2017-10-07T01:05:38.573Z,99.99
2017-10-07T01:06:38.566Z,99.99
2017-10-07T01:07:38.562Z,99.99
2017-10-07T01:08:38.557Z,99.99
2017-10-07T01:09:38.554Z,99.99
2017-10-07T01:10:38.546Z,99.99
2017-10-07T01:11:38.540Z,99.99
2017-10-07T01:12:38.535Z,99.99
2017-10-07T01:13:38.530Z,99.99
2017-10-07T01:14:38.531Z,99.99
2017-10-07T01:15:38.525Z,99.99
2017-10-07T01:16:38.524Z,99.99
2017-10-07T01:17:38.517Z,99.99
2017-10-07T01:18:38.508Z,99.99
2017-10-07T01:19:38.504Z,99.99
2017-10-07T01:20:38.499Z,99.99
2017-10-07T01:21:38.494Z,99.99
2017-10-07T01:22:38.491Z,99.99
2017-10-07T01:23:38.484Z,99.99
2017-10-07T01:24:38.481Z,99.99
2017-10-07T01:25:38.476Z,99.99
2017-10-07T01:26:38.476Z,99.99
2017-10-07T01:27:38.472Z,99.99
2017-10-07T01:28:38.465Z,99.99
2017-10-07T01:29:38.462Z,99.99
2017-10-07T01:30:38.458Z,99.99
2017-10-07T01:31:38.454Z,99.99
2017-10-07T01:32:38.448Z,99.99
2017-10-07T01:33:38.443Z,99.99
2017-10-07T01:34:38.434Z,99.99
2017-10-07T01:35:38.431Z,99.99
2017-10-07T01:36:38.424Z,99.99
2017-10-07T01:37:38.420Z,99.99
2017-10-07T01:38:38.415Z,99.99
2017-10-07T01:39:38.412Z,99.99
2017-10-07T01:40:38.406Z,99.99
2017-10-07T01:41:38.402Z,99.99
2017-10-07T01:42:38.401Z,99.99
2017-10-07T01:43:38.395Z,99.99
2017-10-07T01:44:38.391Z,99.99
2017-10-07T01:45:38.387Z,99.99
2017-10-07T01:46:38.381Z,99.99
2017-10-07T01:47:38.377Z,99.99
2017-10-07T01:48:38.370Z,99.99
2017-10-07T01:49:38.367Z,99.99
2017-10-07T01:50:38.357Z,99.99
2017-10-07T01:51:38.353Z,99.99
2017-10-07T01:52:38.348Z,99.99
2017-10-07T01:53:38.341Z,99.99
2017-10-07T01:54:38.338Z,99.99
2017-10-07T01:55:38.333Z,99.99
2017-10-07T01:56:38.325Z,99.99
2017-10-07T01:57:38.322Z,99.99
2017-10-07T01:58:38.326Z,99.99
2017-10-07T01:59:38.318Z,99.99
2017-10-07T02:00:38.311Z,99.99
2017-10-07T02:01:38.306Z,99.99
2017-10-07T02:02:38.303Z,99.99
2017-10-07T02:03:38.298Z,99.99
2017-10-07T02:04:38.291Z,99.99
2017-10-07T02:05:38.287Z,99.99
2017-10-07T02:06:38.277Z,99.99
2017-10-07T02:07:38.277Z,99.99
2017-10-07T02:08:38.267Z,99.99
2017-10-07T02:09:38.262Z,99.99
2017-10-07T02:10:38.257Z,99.99
2017-10-07T02:11:38.252Z,99.99
2017-10-07T02:12:38.246Z,99.99
2017-10-07T02:13:38.241Z,99.99
2017-10-07T02:14:38.240Z,99.99
2017-10-07T02:15:38.237Z,99.99
2017-10-07T02:16:38.229Z,99.99
2017-10-07T02:17:38.225Z,99.99
2017-10-07T02:18:38.218Z,99.99
2017-10-07T02:19:38.211Z,99.99
2017-10-07T02:20:38.206Z,99.99
2017-10-07T02:21:38.201Z,99.99
2017-10-07T02:22:38.199Z,99.99
2017-10-07T02:23:38.213Z,99.99
2017-10-07T02:24:38.190Z,99.99
2017-10-07T02:25:38.185Z,99.99
2017-10-07T02:26:38.181Z,99.99
2017-10-07T02:27:38.176Z,99.99
2017-10-07T02:28:38.171Z,99.99
2017-10-07T02:29:38.165Z,99.99
2017-10-07T02:30:38.156Z,99.99
2017-10-07T02:31:38.152Z,99.99
2017-10-07T02:32:38.145Z,99.99
2017-10-07T02:33:38.142Z,99.99
2017-10-07T02:34:38.137Z,99.99
2017-10-07T02:35:38.133Z,99.99
2017-10-07T02:36:38.123Z,99.99
2017-10-07T02:37:38.119Z,99.99
2017-10-07T02:38:38.119Z,99.99
2017-10-07T02:39:38.114Z,99.99
2017-10-07T02:40:38.109Z,99.99
2017-10-07T02:41:38.104Z,99.99
2017-10-07T02:42:38.099Z,99.99
2017-10-07T02:43:38.094Z,99.99
2017-10-07T02:44:38.089Z,99.99
2017-10-07T02:45:38.083Z,99.99
2017-10-07T02:46:38.102Z,99.99
2017-10-07T02:47:38.069Z,99.99
2017-10-07T02:48:38.064Z,99.99
2017-10-07T02:49:38.059Z,99.99
2017-10-07T02:50:38.054Z,99.99
2017-10-07T02:51:38.050Z,99.99
2017-10-07T02:52:38.045Z,99.99
2017-10-07T02:53:38.040Z,99.99
2017-10-07T02:54:38.044Z,99.99
2017-10-07T02:55:38.045Z,99.99
2017-10-07T02:56:38.028Z,99.99
2017-10-07T02:57:38.022Z,99.99
2017-10-07T02:58:38.017Z,99.99
2017-10-07T02:59:38.014Z,99.99
2017-10-07T03:00:38.007Z,99.99
2017-10-07T03:01:38.003Z,99.99
2017-10-07T03:02:37.994Z,99.99
2017-10-07T03:03:37.989Z,99.99
2017-10-07T03:04:37.982Z,99.99
2017-10-07T03:05:37.979Z,99.99
2017-10-07T03:06:37.974Z,99.99
2017-10-07T03:07:37.970Z,99.99
2017-10-07T03:08:37.963Z,99.99
2017-10-07T03:09:37.958Z,99.99
2017-10-07T03:10:37.958Z,99.99
2017-10-07T03:11:37.954Z,99.99
2017-10-07T03:12:37.947Z,99.99
2017-10-07T03:13:37.943Z,99.99
2017-10-07T03:14:37.938Z,99.99
2017-10-07T03:15:37.933Z,99.99
2017-10-07T03:16:37.926Z,99.99
2017-10-07T03:17:37.923Z,99.99
2017-10-07T03:18:37.914Z,99.99
2017-10-07T03:19:37.908Z,99.99
2017-10-07T03:20:37.925Z,99.99
2017-10-07T03:21:37.899Z,99.99
2017-10-07T03:22:37.894Z,99.99
2017-10-07T03:23:37.888Z,99.99
2017-10-07T03:24:37.882Z,99.99
2017-10-07T03:25:37.878Z,99.99
2017-10-07T03:26:37.876Z,99.99
2017-10-07T03:27:37.872Z,99.99
2017-10-07T03:28:37.865Z,99.99
2017-10-07T03:29:37.860Z,99.99
2017-10-07T03:30:37.864Z,99.99
2017-10-07T03:31:37.851Z,99.99
2017-10-07T03:32:37.846Z,99.99
2017-10-07T03:33:37.841Z,99.99
2017-10-07T03:34:37.831Z,99.99
2017-10-07T03:35:37.827Z,99.99
2017-10-07T03:36:37.821Z,99.99
2017-10-07T03:37:37.816Z,99.99
2017-10-07T03:38:37.814Z,99.99
2017-10-07T03:39:37.806Z,99.99
2017-10-07T03:40:37.800Z,99.99
2017-10-07T03:41:37.796Z,99.99
2017-10-07T03:42:37.794Z,99.99
2017-10-07T03:43:37.788Z,99.99
2017-10-07T03:44:37.783Z,99.99
2017-10-07T03:45:37.777Z,99.99
2017-10-07T03:46:37.773Z,99.99
2017-10-07T03:47:37.768Z,99.99
2017-10-07T03:48:37.760Z,99.99
2017-10-07T03:49:37.758Z,99.99
2017-10-07T03:50:37.748Z,99.99
2017-10-07T03:51:37.742Z,99.99
2017-10-07T03:52:37.738Z,99.99
2017-10-07T03:53:37.733Z,99.99
2017-10-07T03:54:37.727Z,99.99
2017-10-07T03:55:37.723Z,99.99
2017-10-07T03:56:37.716Z,99.99
2017-10-07T03:57:37.712Z,99.99
2017-10-07T03:58:37.710Z,99.99
2017-10-07T03:59:37.708Z,99.99
2017-10-07T04:00:37.700Z,99.99
2017-10-07T04:01:37.695Z,99.99
2017-10-07T04:02:37.689Z,99.99
2017-10-07T04:03:37.685Z,99.99
2017-10-07T04:04:37.679Z,99.99
2017-10-07T04:05:37.673Z,99.99
2017-10-07T04:06:37.668Z,99.99
2017-10-07T04:07:37.659Z,99.99
2017-10-07T04:08:37.653Z,99.99
2017-10-07T04:09:37.648Z,99.99
2017-10-07T04:10:37.642Z,99.99
2017-10-07T04:11:37.657Z,99.99
2017-10-07T04:12:37.633Z,99.99
2017-10-07T04:13:37.626Z,99.99
2017-10-07T04:14:37.626Z,99.99
2017-10-07T04:15:37.621Z,99.99
2017-10-07T04:16:37.631Z,99.99
2017-10-07T04:17:37.610Z,99.99
2017-10-07T04:18:37.605Z,99.99
2017-10-07T04:19:37.600Z,99.99
2017-10-07T04:20:37.594Z,99.99
2017-10-07T04:21:37.589Z,99.99
2017-10-07T04:22:37.581Z,99.99
2017-10-07T04:23:37.576Z,99.99
2017-10-07T04:24:37.568Z,99.99
2017-10-07T04:25:37.564Z,99.99
2017-10-07T04:26:37.563Z,99.99
2017-10-07T04:27:37.558Z,99.99
2017-10-07T04:28:37.551Z,99.99
2017-10-07T04:29:37.547Z,99.99
2017-10-07T04:30:37.537Z,99.99
2017-10-07T04:31:37.533Z,99.99
2017-10-07T04:32:37.527Z,99.99
2017-10-07T04:33:37.522Z,99.99
2017-10-07T04:34:37.517Z,99.99
2017-10-07T04:35:37.512Z,99.99
2017-10-07T04:36:37.507Z,99.99
2017-10-07T04:37:37.501Z,99.99
2017-10-07T04:38:37.500Z,99.99
2017-10-07T04:39:37.495Z,99.99
2017-10-07T04:40:37.489Z,99.99
2017-10-07T04:41:37.482Z,99.99
2017-10-07T04:42:37.479Z,99.99
2017-10-07T04:43:37.474Z,99.99
2017-10-07T04:44:37.466Z,99.99
2017-10-07T04:45:37.462Z,99.99
2017-10-07T04:46:37.453Z,99.99
2017-10-07T04:47:37.448Z,99.99
2017-10-07T04:48:37.453Z,99.99
2017-10-07T04:49:37.436Z,99.99
2017-10-07T04:50:37.430Z,99.99
2017-10-07T04:51:37.428Z,99.99
2017-10-07T04:52:37.421Z,99.99
2017-10-07T04:53:37.416Z,99.99
2017-10-07T04:54:37.415Z,99.99
2017-10-07T04:55:37.409Z,99.99
2017-10-07T04:56:37.403Z,99.99
2017-10-07T04:57:37.402Z,99.99
2017-10-07T04:58:37.394Z,99.99
2017-10-07T04:59:37.390Z,99.99
2017-10-07T05:00:37.386Z,99.99
2017-10-07T05:01:37.378Z,99.99
2017-10-07T05:02:37.369Z,99.99
2017-10-07T05:03:37.366Z,99.99
2017-10-07T05:04:37.358Z,99.99
2017-10-07T05:05:37.352Z,99.99
2017-10-07T05:06:37.348Z,99.99
2017-10-07T05:07:37.344Z,99.99
2017-10-07T05:08:37.336Z,99.99
2017-10-07T05:09:37.333Z,99.99
2017-10-07T05:10:37.332Z,99.99
2017-10-07T05:11:37.327Z,99.99
2017-10-07T05:12:37.321Z,99.60
2017-10-07T05:13:37.315Z,99.51
2017-10-07T05:14:37.310Z,99.04
2017-10-07T05:15:37.306Z,99.04
2017-10-07T05:16:37.300Z,99.04
2017-10-07T05:17:37.295Z,98.56
2017-10-07T05:18:37.286Z,99.22
2017-10-07T05:19:37.281Z,99.41
2017-10-07T05:20:37.275Z,99.41
2017-10-07T05:21:37.270Z,99.13
2017-10-07T05:22:37.265Z,98.36
2017-10-07T05:23:37.259Z,98.36
2017-10-07T05:24:37.253Z,98.56
2017-10-07T05:25:37.250Z,97.99
2017-10-07T05:26:37.249Z,98.36
2017-10-07T05:27:37.244Z,98.18
2017-10-07T05:28:37.238Z,98.36
2017-10-07T05:29:37.232Z,97.99
2017-10-07T05:30:37.222Z,98.36
2017-10-07T05:31:37.219Z,98.36
2017-10-07T05:32:37.213Z,97.99
2017-10-07T05:33:37.208Z,97.61
2017-10-07T05:34:37.206Z,98.08
2017-10-07T05:35:37.201Z,98.18
2017-10-07T05:36:37.195Z,98.36
2017-10-07T05:37:37.190Z,98.36
2017-10-07T05:38:37.184Z,97.99
2017-10-07T05:39:37.181Z,98.08
2017-10-07T05:40:37.174Z,98.51
2017-10-07T05:41:37.170Z,98.85
2017-10-07T05:42:37.159Z,99.32
2017-10-07T05:43:37.153Z,98.60
2017-10-07T05:44:37.148Z,98.70
2017-10-07T05:45:37.143Z,98.03
2017-10-07T05:46:37.138Z,98.13
2017-10-07T05:47:37.133Z,98.51
2017-10-07T05:48:37.127Z,97.75
2017-10-07T05:49:37.120Z,98.70
2017-10-07T05:50:37.120Z,98.41
2017-10-07T05:51:37.117Z,98.13
2017-10-07T05:52:37.108Z,97.99
2017-10-07T05:53:37.104Z,97.80
2017-10-07T05:54:37.100Z,98.13
2017-10-07T05:55:37.099Z,97.36
2017-10-07T05:56:37.087Z,97.41
2017-10-07T05:57:37.082Z,97.13
2017-10-07T05:58:37.072Z,97.89
2017-10-07T05:59:37.072Z,97.46
2017-10-07T06:00:37.061Z,97.22
2017-10-07T06:01:37.057Z,96.94
2017-10-07T06:02:37.052Z,96.94
2017-10-07T06:03:37.047Z,97.32
2017-10-07T06:04:37.040Z,97.13
2017-10-07T06:05:37.033Z,97.13
2017-10-07T06:06:37.034Z,96.36
2017-10-07T06:07:37.031Z,96.84
2017-10-07T06:08:37.023Z,97.22
2017-10-07T06:09:37.018Z,96.56
2017-10-07T06:10:37.014Z,96.17
2017-10-07T06:11:37.007Z,96.08
2017-10-07T06:12:37.002Z,95.51
2017-10-07T06:13:36.996Z,94.74
2017-10-07T06:14:36.987Z,94.56
2017-10-07T06:15:36.983Z,94.56
2017-10-07T06:16:36.976Z,94.74
2017-10-07T06:17:36.971Z,94.46
2017-10-07T06:18:36.966Z,94.37
2017-10-07T06:19:36.961Z,94.08
2017-10-07T06:20:36.956Z,93.41
2017-10-07T06:21:36.950Z,94.08
2017-10-07T06:22:36.949Z,93.41
2017-10-07T06:23:36.943Z,93.32
2017-10-07T06:24:36.938Z,92.93
2017-10-07T06:25:36.933Z,93.03
2017-10-07T06:26:36.928Z,93.70
2017-10-07T06:27:36.923Z,93.32
2017-10-07T06:28:36.917Z,93.12
2017-10-07T06:29:36.912Z,92.46
2017-10-07T06:30:36.903Z,92.55
2017-10-07T06:31:36.898Z,92.27
2017-10-07T06:32:36.891Z,92.27
2017-10-07T06:33:36.887Z,92.27
2017-10-07T06:34:36.887Z,91.98
2017-10-07T06:35:36.884Z,92.08
2017-10-07T06:36:36.876Z,91.31
2017-10-07T06:37:36.871Z,91.55
2017-10-07T06:38:36.871Z,90.98
2017-10-07T06:39:36.856Z,91.07
2017-10-07T06:40:36.851Z,90.55
2017-10-07T06:41:36.846Z,89.40
2017-10-07T06:42:36.842Z,89.12
2017-10-07T06:43:36.840Z,88.16
2017-10-07T06:44:36.837Z,88.64
2017-10-07T06:45:36.829Z,88.16
2017-10-07T06:46:36.828Z,88.73
2017-10-07T06:47:36.823Z,88.69
2017-10-07T06:48:36.817Z,88.21
2017-10-07T06:49:36.813Z,88.50
2017-10-07T06:50:36.809Z,88.21
2017-10-07T06:51:36.804Z,88.21
2017-10-07T06:52:36.799Z,87.54
2017-10-07T06:53:36.795Z,87.59
2017-10-07T06:54:36.785Z,87.59
2017-10-07T06:55:36.782Z,87.30
2017-10-07T06:56:36.777Z,87.02
2017-10-07T06:57:36.774Z,87.68
2017-10-07T06:58:36.768Z,87.11
2017-10-07T06:59:36.764Z,86.54
2017-10-07T07:00:36.761Z,86.39
2017-10-07T07:01:36.755Z,86.20
2017-10-07T07:02:36.756Z,86.20
2017-10-07T07:03:36.754Z,86.20
2017-10-07T07:04:36.748Z,85.68
2017-10-07T07:05:36.744Z,85.87
2017-10-07T07:06:36.741Z,85.77
2017-10-07T07:07:36.736Z,85.87
2017-10-07T07:08:36.732Z,86.06
2017-10-07T07:09:36.729Z,86.54
2017-10-07T07:10:36.719Z,86.63
2017-10-07T07:11:36.717Z,86.16
2017-10-07T07:12:36.712Z,87.30
2017-10-07T07:13:36.710Z,87.11
2017-10-07T07:14:36.705Z,87.11
2017-10-07T07:15:36.700Z,87.45
2017-10-07T07:16:36.699Z,87.93
2017-10-07T07:17:36.694Z,87.68
2017-10-07T07:18:36.694Z,88.69
2017-10-07T07:19:36.714Z,87.74
2017-10-07T07:20:36.687Z,87.74
2017-10-07T07:21:36.682Z,87.74
2017-10-07T07:22:36.678Z,88.54
2017-10-07T07:23:36.680Z,88.69
2017-10-07T07:24:36.668Z,87.64
2017-10-07T07:25:36.665Z,88.21
2017-10-07T07:26:36.658Z,88.78
2017-10-07T07:27:36.654Z,88.83
2017-10-07T07:28:36.650Z,88.12
2017-10-07T07:29:36.644Z,88.78
2017-10-07T07:30:36.642Z,88.78
2017-10-07T07:31:36.637Z,89.17
2017-10-07T07:32:36.633Z,89.17
2017-10-07T07:33:36.628Z,89.21
2017-10-07T07:34:36.629Z,88.83
2017-10-07T07:35:36.624Z,88.64
2017-10-07T07:36:36.620Z,88.07
2017-10-07T07:37:36.615Z,87.68
2017-10-07T07:38:36.608Z,87.68
2017-10-07T07:39:36.606Z,87.78
2017-10-07T07:40:36.599Z,87.87
2017-10-07T07:41:36.596Z,87.30
2017-10-07T07:42:36.597Z,87.11
2017-10-07T07:43:36.593Z,86.63
2017-10-07T07:44:36.587Z,86.35
2017-10-07T07:45:36.590Z,86.54
2017-10-07T07:46:36.580Z,87.02
2017-10-07T07:47:36.578Z,87.49
2017-10-07T07:48:36.572Z,87.11
2017-10-07T07:49:36.569Z,86.82
2017-10-07T07:50:36.560Z,87.78
2017-10-07T07:51:36.556Z,87.68
2017-10-07T07:52:36.553Z,87.68
2017-10-07T07:53:36.549Z,87.68
2017-10-07T07:54:36.545Z,87.40
2017-10-07T07:55:36.543Z,87.78
2017-10-07T07:56:36.538Z,88.07
2017-10-07T07:57:36.533Z,87.49
2017-10-07T07:58:36.533Z,87.68
2017-10-07T07:59:36.529Z,87.68
2017-10-07T08:00:36.544Z,87.68
2017-10-07T08:01:36.520Z,87.78
2017-10-07T08:02:36.517Z,87.59
2017-10-07T08:03:36.514Z,87.59
2017-10-07T08:04:36.510Z,87.97
2017-10-07T08:05:36.508Z,87.49
2017-10-07T08:06:36.497Z,87.68
2017-10-07T08:07:36.491Z,87.68
2017-10-07T08:08:36.488Z,88.35
2017-10-07T08:09:36.486Z,88.26
2017-10-07T08:10:36.480Z,88.26
2017-10-07T08:11:36.478Z,87.59
2017-10-07T08:12:36.472Z,87.49
2017-10-07T08:13:36.469Z,87.73
2017-10-07T08:14:36.469Z,87.73
2017-10-07T08:15:36.470Z,87.15
2017-10-07T08:16:36.461Z,86.58
2017-10-07T08:17:36.456Z,86.39
2017-10-07T08:18:36.455Z,85.72
2017-10-07T08:19:36.449Z,85.91
2017-10-07T08:20:36.447Z,86.24
2017-10-07T08:21:36.442Z,86.53
2017-10-07T08:22:36.434Z,86.39
2017-10-07T08:23:36.431Z,85.44
2017-10-07T08:24:36.426Z,85.82
2017-10-07T08:25:36.424Z,85.82
2017-10-07T08:26:36.421Z,85.91
2017-10-07T08:27:36.418Z,86.01
2017-10-07T08:28:36.413Z,85.82
2017-10-07T08:29:36.410Z,86.01
2017-10-07T08:30:36.411Z,86.49
2017-10-07T08:31:36.406Z,86.39
2017-10-07T08:32:36.404Z,86.30
2017-10-07T08:33:36.400Z,86.68
2017-10-07T08:34:36.403Z,86.49
2017-10-07T08:35:36.395Z,86.10
2017-10-07T08:36:36.390Z,86.24
2017-10-07T08:37:36.387Z,86.15
2017-10-07T08:38:36.381Z,86.72
2017-10-07T08:39:36.378Z,86.63
2017-10-07T08:40:36.373Z,87.29
2017-10-07T08:41:36.370Z,87.20
2017-10-07T08:42:36.370Z,86.82
2017-10-07T08:43:36.369Z,87.01
2017-10-07T08:44:36.364Z,86.05
2017-10-07T08:45:36.363Z,85.86
2017-10-07T08:46:36.355Z,86.24
2017-10-07T08:47:36.353Z,86.49
2017-10-07T08:48:36.348Z,86.49
2017-10-07T08:49:36.345Z,86.43
2017-10-07T08:50:36.344Z,86.39
2017-10-07T08:51:36.340Z,87.44
2017-10-07T08:52:36.334Z,86.96
2017-10-07T08:53:36.332Z,86.77
2017-10-07T08:54:36.333Z,87.29
2017-10-07T08:55:36.328Z,87.06
2017-10-07T08:56:36.325Z,87.06
2017-10-07T08:57:36.322Z,87.73
2017-10-07T08:58:36.320Z,87.54
2017-10-07T08:59:36.315Z,87.54
2017-10-07T09:00:36.311Z,87.35
2017-10-07T09:01:36.309Z,87.82
2017-10-07T09:02:36.302Z,87.63
2017-10-07T09:03:36.299Z,87.63
2017-10-07T09:04:36.292Z,87.73
2017-10-07T09:05:36.291Z,88.20
2017-10-07T09:06:36.288Z,88.68
2017-10-07T09:07:36.285Z,88.30
2017-10-07T09:08:36.280Z,88.78
2017-10-07T09:09:36.275Z,89.06
2017-10-07T09:10:36.276Z,89.25
2017-10-07T09:11:36.274Z,89.06
2017-10-07T09:12:36.269Z,88.97
2017-10-07T09:13:36.266Z,89.64
2017-10-07T09:14:36.263Z,89.06
2017-10-07T09:15:36.259Z,89.16
2017-10-07T09:16:36.255Z,88.49
2017-10-07T09:17:36.252Z,88.34
2017-10-07T09:18:36.244Z,88.63
2017-10-07T09:19:36.245Z,88.15
2017-10-07T09:20:36.236Z,88.15
2017-10-07T09:21:36.234Z,87.77
2017-10-07T09:22:36.229Z,87.58
2017-10-07T09:23:36.232Z,87.20
2017-10-07T09:24:36.223Z,87.44
2017-10-07T09:25:36.219Z,87.10
2017-10-07T09:26:36.221Z,87.20
2017-10-07T09:27:36.218Z,86.34
2017-10-07T09:28:36.212Z,85.96
2017-10-07T09:29:36.209Z,85.58
2017-10-07T09:30:36.217Z,85.38
2017-10-07T09:31:36.202Z,85.00
2017-10-07T09:32:36.198Z,83.99
2017-10-07T09:33:36.197Z,84.28
2017-10-07T09:34:36.188Z,84.28
2017-10-07T09:35:36.189Z,83.80
2017-10-07T09:36:36.182Z,83.61
2017-10-07T09:37:36.179Z,83.75
2017-10-07T09:38:36.177Z,83.33
2017-10-07T09:39:36.178Z,82.84
2017-10-07T09:40:36.169Z,82.84
2017-10-07T09:41:36.168Z,83.33
2017-10-07T09:42:36.168Z,82.65
2017-10-07T09:43:36.167Z,82.56
2017-10-07T09:44:36.163Z,82.84
2017-10-07T09:45:36.161Z,82.46
2017-10-07T09:46:36.155Z,82.46
2017-10-07T09:47:36.169Z,82.65
2017-10-07T09:48:36.148Z,82.37
2017-10-07T09:49:36.145Z,82.75
2017-10-07T09:50:36.147Z,82.75
2017-10-07T09:51:36.146Z,83.13
2017-10-07T09:52:36.140Z,82.75
2017-10-07T09:53:36.138Z,82.81
2017-10-07T09:54:36.138Z,83.61
2017-10-07T09:55:36.133Z,83.13
2017-10-07T09:56:36.130Z,83.80
2017-10-07T09:57:36.127Z,83.70
2017-10-07T09:58:36.121Z,83.80
2017-10-07T09:59:36.118Z,83.57
2017-10-07T10:00:36.116Z,83.47
2017-10-07T10:01:36.112Z,83.57
2017-10-07T10:02:36.111Z,83.95
2017-10-07T10:03:36.107Z,84.23
2017-10-07T10:04:36.104Z,84.14
2017-10-07T10:05:36.105Z,84.05
2017-10-07T10:06:36.103Z,84.05
2017-10-07T10:07:36.099Z,84.33
2017-10-07T10:08:36.097Z,84.43
2017-10-07T10:09:36.098Z,84.14
2017-10-07T10:10:36.091Z,84.05
2017-10-07T10:11:36.089Z,84.14
2017-10-07T10:12:36.085Z,84.47
2017-10-07T10:13:36.096Z,84.38
2017-10-07T10:14:36.075Z,84.28
2017-10-07T10:15:36.073Z,84.33
2017-10-07T10:16:36.069Z,83.95
2017-10-07T10:17:36.066Z,84.72
2017-10-07T10:18:36.064Z,84.09
2017-10-07T10:19:36.061Z,84.19
2017-10-07T10:20:36.056Z,84.23
2017-10-07T10:21:36.055Z,84.33
2017-10-07T10:22:36.056Z,85.48
2017-10-07T10:23:36.054Z,85.00
2017-10-07T10:24:36.049Z,85.38
2017-10-07T10:25:36.047Z,84.91
2017-10-07T10:26:36.044Z,85.48
2017-10-07T10:27:36.041Z,85.77
2017-10-07T10:28:36.037Z,85.10
2017-10-07T10:29:36.034Z,85.00
2017-10-07T10:30:36.027Z,85.48
2017-10-07T10:31:36.025Z,85.48
2017-10-07T10:32:36.020Z,86.10
2017-10-07T10:33:36.017Z,86.05
2017-10-07T10:34:36.014Z,87.48
2017-10-07T10:35:36.010Z,87.54
2017-10-07T10:36:36.009Z,86.96
2017-10-07T10:37:36.004Z,87.54
2017-10-07T10:38:36.004Z,88.68
2017-10-07T10:39:36.001Z,89.45
2017-10-07T10:40:35.996Z,89.92
2017-10-07T10:41:35.995Z,90.69
2017-10-07T10:42:35.993Z,91.16
2017-10-07T10:43:35.988Z,91.45
2017-10-07T10:44:35.984Z,92.31
2017-10-07T10:45:35.978Z,93.26
2017-10-07T10:46:35.976Z,93.02
2017-10-07T10:47:35.968Z,92.65
2017-10-07T10:48:35.963Z,93.41
2017-10-07T10:49:35.960Z,94.46
2017-10-07T10:50:35.963Z,94.36
2017-10-07T10:51:35.959Z,95.41
2017-10-07T10:52:35.951Z,95.03
2017-10-07T10:53:35.948Z,95.51
2017-10-07T10:54:35.941Z,95.89
2017-10-07T10:55:35.937Z,96.37
2017-10-07T10:56:35.930Z,97.13
2017-10-07T10:57:35.928Z,96.66
2017-10-07T10:58:35.924Z,96.94
2017-10-07T10:59:35.919Z,96.84
2017-10-07T11:00:35.915Z,97.42
2017-10-07T11:01:35.910Z,97.13
2017-10-07T11:02:35.910Z,97.71
2017-10-07T11:03:35.905Z,97.89
2017-10-07T11:04:35.902Z,98.27
2017-10-07T11:05:35.898Z,99.13
2017-10-07T11:06:35.899Z,99.13
2017-10-07T11:07:35.890Z,99.99
2017-10-07T11:08:35.885Z,99.90
2017-10-07T11:09:35.881Z,99.99
2017-10-07T11:10:35.876Z,99.99
2017-10-07T11:11:35.868Z,99.99
2017-10-07T11:12:35.863Z,99.99
2017-10-07T11:13:35.860Z,99.99
2017-10-07T11:14:35.854Z,99.99
2017-10-07T11:15:35.851Z,99.99
2017-10-07T11:16:35.845Z,99.99
2017-10-07T11:17:35.841Z,99.99
2017-10-07T11:18:35.841Z,99.99
2017-10-07T11:19:35.836Z,99.99
2017-10-07T11:20:35.832Z,99.99
2017-10-07T11:21:35.827Z,99.99
2017-10-07T11:22:35.822Z,99.99
2017-10-07T11:23:35.821Z,99.99
2017-10-07T11:24:35.813Z,99.99
2017-10-07T11:25:35.807Z,99.99
2017-10-07T11:26:35.806Z,99.99
2017-10-07T11:27:35.794Z,99.99
2017-10-07T11:28:35.790Z,99.99
2017-10-07T11:29:35.783Z,99.99
2017-10-07T11:30:35.780Z,99.99
2017-10-07T11:31:35.775Z,99.99
2017-10-07T11:32:35.770Z,99.99
2017-10-07T11:33:35.765Z,99.99
2017-10-07T11:34:35.766Z,99.99
2017-10-07T11:35:35.760Z,99.99
2017-10-07T11:36:35.754Z,99.99
2017-10-07T11:37:35.748Z,99.99
2017-10-07T11:38:35.746Z,99.99
2017-10-07T11:39:35.740Z,99.99
2017-10-07T11:40:35.734Z,99.99
2017-10-07T11:41:35.730Z,99.99
2017-10-07T11:42:35.721Z,99.99
2017-10-07T11:43:35.717Z,99.99
2017-10-07T11:44:35.711Z,99.99
2017-10-07T11:45:35.705Z,99.99
2017-10-07T11:46:35.702Z,99.99
2017-10-07T11:47:35.695Z,99.99
2017-10-07T11:48:35.691Z,99.99
2017-10-07T11:49:35.686Z,99.99
2017-10-07T11:50:35.685Z,99.99
2017-10-07T11:51:35.682Z,99.99
2017-10-07T11:52:35.674Z,99.99
2017-10-07T11:53:35.671Z,99.99
2017-10-07T11:54:35.666Z,99.99
2017-10-07T11:55:35.661Z,99.99
2017-10-07T11:56:35.657Z,99.99
2017-10-07T11:57:35.651Z,99.99
2017-10-07T11:58:35.643Z,99.99
2017-10-07T11:59:35.638Z,99.99
2017-10-07T12:00:35.632Z,99.99
2017-10-07T12:01:35.628Z,99.99
2017-10-07T12:02:35.622Z,99.99
2017-10-07T12:03:35.618Z,99.99
2017-10-07T12:04:35.611Z,99.99
2017-10-07T12:05:35.607Z,99.99
2017-10-07T12:06:35.608Z,99.99
2017-10-07T12:07:35.603Z,99.99
2017-10-07T12:08:35.595Z,99.99
2017-10-07T12:09:35.592Z,99.99
2017-10-07T12:10:35.586Z,99.99
2017-10-07T12:11:35.583Z,99.99
2017-10-07T12:12:35.576Z,99.99
2017-10-07T12:13:35.572Z,99.99
2017-10-07T12:14:35.567Z,99.99
2017-10-07T12:15:35.559Z,99.99
2017-10-07T12:16:35.553Z,99.99
2017-10-07T12:17:35.548Z,99.99
2017-10-07T12:18:35.543Z,99.99
2017-10-07T12:19:35.538Z,99.99
2017-10-07T12:20:35.533Z,99.99
2017-10-07T12:21:35.528Z,99.99
2017-10-07T12:22:35.528Z,99.99
2017-10-07T12:23:35.522Z,99.99
2017-10-07T12:24:35.517Z,99.99
2017-10-07T12:25:35.512Z,99.99
2017-10-07T12:26:35.506Z,99.99
2017-10-07T12:27:35.503Z,99.99
2017-10-07T12:28:35.496Z,99.99
2017-10-07T12:29:35.494Z,99.99
2017-10-07T12:30:35.485Z,99.99
2017-10-07T12:31:35.477Z,99.99
2017-10-07T12:32:35.473Z,99.99
2017-10-07T12:33:35.468Z,99.99
2017-10-07T12:34:35.464Z,99.99
2017-10-07T12:35:35.459Z,99.99
2017-10-07T12:36:35.454Z,99.99
2017-10-07T12:37:35.448Z,99.99
2017-10-07T12:38:35.449Z,99.99
2017-10-07T12:39:35.442Z,99.99
2017-10-07T12:40:35.438Z,99.99
2017-10-07T12:41:35.432Z,99.99
2017-10-07T12:42:35.427Z,99.99
2017-10-07T12:43:35.422Z,99.99
2017-10-07T12:44:35.419Z,99.99
2017-10-07T12:45:35.415Z,99.99
2017-10-07T12:46:35.404Z,99.99
2017-10-07T12:47:35.400Z,99.99
2017-10-07T12:48:35.394Z,99.99
2017-10-07T12:49:35.390Z,99.99
2017-10-07T12:50:35.386Z,99.99
2017-10-07T12:51:35.381Z,99.99
2017-10-07T12:52:35.376Z,99.99